Terminal Aerodrome Forecast
Issued by NWS

Home | Current Version | Previous Version | Text Only | Print | Product List | Glossary On
Versions: 1 2 3 4 5 6 7 8 9 10 11 12
000
FTUS45 KGGW 221728
TAFGDV
TAF
KGDV 221728Z 2218/2318 VRB06KT P6SM VCSH SCT080
     FM222300 24005KT P6SM BKN110
     FM231600 26008KT P6SM SCT030=

USA.gov is the U.S. government's official web portal to all federal, state and local government web resources and services.